Time;durP1;ratioP1;P1;durP2;ratioP2;P2;SDS_P1;SDS_P2;PMS_P1;PMS_P2;Temp;Humidity;BMP_temperature;BMP_pressure;BME280_temperature;BME280_humidity;BME280_pressure;Samples;Min_cycle;Max_cycle;Signal;HPM_P1;HPM_P2
2021/10/24 00:01:29;;;;;;;1.90;1.65;;;6.40;99.90;;;;;;5074625;28;20055;-73
2021/10/24 00:03:55;;;;;;;0.45;0.45;;;6.20;99.90;;;;;;5056619;28;20460;-74
2021/10/24 00:06:20;;;;;;;0.30;0.30;;;5.90;99.90;;;;;;5074331;28;20036;-74
2021/10/24 00:08:46;;;;;;;0.30;0.30;;;5.90;99.90;;;;;;5056378;28;20021;-74
2021/10/24 00:11:12;;;;;;;0.82;0.82;;;6.10;99.90;;;;;;5074468;28;20495;-73
2021/10/24 00:13:40;;;;;;;0.30;0.30;;;6.20;99.90;;;;;;5039929;28;20025;-73
2021/10/24 00:16:06;;;;;;;0.28;0.28;;;6.10;99.90;;;;;;5074328;28;20024;-74
2021/10/24 00:18:32;;;;;;;0.30;0.30;;;6.10;99.90;;;;;;5074527;28;20066;-73
2021/10/24 00:20:59;;;;;;;1.27;1.17;;;6.30;99.90;;;;;;5056349;28;20218;-73
2021/10/24 00:23:25;;;;;;;0.30;0.30;;;6.30;99.90;;;;;;5056508;28;20044;-74
2021/10/24 00:25:51;;;;;;;0.90;0.90;;;6.30;99.90;;;;;;5074099;28;20060;-74
2021/10/24 00:28:17;;;;;;;0.30;0.30;;;6.50;99.90;;;;;;5074178;28;20021;-74
2021/10/24 00:30:43;;;;;;;8.68;1.58;;;6.60;99.90;;;;;;5074258;28;20031;-73
2021/10/24 00:33:09;;;;;;;0.30;0.30;;;6.60;99.90;;;;;;5074127;28;20039;-74
2021/10/24 00:35:35;;;;;;;0.50;0.50;;;6.70;99.90;;;;;;5055965;28;20020;-74
2021/10/24 00:38:01;;;;;;;0.40;0.40;;;6.80;99.90;;;;;;5073839;28;20086;-74
2021/10/24 00:40:27;;;;;;;0.20;0.20;;;6.60;99.90;;;;;;5073990;28;20029;-73
2021/10/24 00:42:53;;;;;;;0.43;0.43;;;6.40;99.90;;;;;;5073975;28;20017;-73
2021/10/24 00:45:24;;;;;;;0.20;0.20;;;6.30;99.90;;;;;;5055796;28;20416;-74
2021/10/24 00:47:53;;;;;;;0.40;0.40;;;6.30;99.90;;;;;;5073839;28;20025;-74
2021/10/24 00:50:20;;;;;;;0.30;0.30;;;6.40;99.90;;;;;;5055782;28;20147;-73
2021/10/24 00:52:46;;;;;;;0.20;0.20;;;6.20;99.90;;;;;;5055537;28;20024;-74
2021/10/24 00:55:14;;;;;;;0.43;0.43;;;6.00;99.90;;;;;;5055655;28;20021;-73
2021/10/24 00:57:40;;;;;;;0.50;0.50;;;6.10;99.90;;;;;;5073796;28;20013;-74
2021/10/24 01:00:09;;;;;;;0.60;0.60;;;6.20;99.90;;;;;;5073590;28;20032;-74
2021/10/24 01:02:35;;;;;;;0.30;0.30;;;6.10;99.90;;;;;;5073539;28;20551;-74
2021/10/24 01:05:02;;;;;;;0.43;0.43;;;6.30;99.90;;;;;;5073353;28;20364;-74
2021/10/24 01:07:29;;;;;;;0.30;0.30;;;6.40;99.90;;;;;;5055611;28;20557;-74
2021/10/24 01:09:55;;;;;;;0.30;0.30;;;6.30;99.90;;;;;;5055390;28;20124;-74
2021/10/24 01:12:21;;;;;;;0.60;0.50;;;6.10;99.90;;;;;;5038869;28;20051;-73
2021/10/24 01:14:47;;;;;;;2.83;2.70;;;6.20;99.90;;;;;;5072944;28;20427;-74
2021/10/24 01:17:13;;;;;;;0.35;0.35;;;6.30;99.90;;;;;;5073186;28;20054;-74
2021/10/24 01:19:38;;;;;;;0.95;0.95;;;6.30;99.90;;;;;;5073312;28;20025;-73
2021/10/24 01:22:04;;;;;;;0.30;0.30;;;6.20;99.90;;;;;;5055567;28;20355;-73
2021/10/24 01:24:30;;;;;;;0.20;0.20;;;6.30;99.90;;;;;;5055191;28;20031;-73
2021/10/24 01:26:56;;;;;;;0.50;0.50;;;6.20;99.90;;;;;;5054993;28;20087;-73
2021/10/24 01:29:23;;;;;;;0.60;0.60;;;6.30;99.90;;;;;;5072989;28;20032;-73
2021/10/24 01:31:51;;;;;;;2.15;2.00;;;6.30;99.90;;;;;;5054950;28;20071;-73
2021/10/24 01:34:16;;;;;;;0.60;0.60;;;6.40;99.90;;;;;;5072894;28;20074;-74
2021/10/24 01:36:43;;;;;;;3.50;3.22;;;6.40;99.90;;;;;;5072673;28;20032;-73
2021/10/24 01:39:08;;;;;;;0.30;0.30;;;6.40;99.90;;;;;;5054826;28;20583;-74
2021/10/24 01:41:34;;;;;;;0.52;0.52;;;6.40;99.90;;;;;;5073090;28;20103;-73
2021/10/24 01:44:00;;;;;;;0.85;0.57;;;6.20;99.90;;;;;;5054854;28;20476;-74
2021/10/24 01:46:26;;;;;;;3.10;1.75;;;6.30;99.90;;;;;;5072458;28;20036;-74
2021/10/24 01:48:52;;;;;;;0.30;0.30;;;6.20;99.90;;;;;;5054705;28;20029;-74
2021/10/24 01:51:19;;;;;;;1.55;1.45;;;6.20;99.90;;;;;;5072621;28;20051;-74
2021/10/24 01:53:46;;;;;;;14.07;7.25;;;6.20;99.90;;;;;;5072430;28;20029;-74
2021/10/24 01:56:12;;;;;;;0.20;0.20;;;6.30;99.90;;;;;;5054329;28;20387;-74
2021/10/24 01:58:38;;;;;;;0.25;0.25;;;6.30;99.90;;;;;;5054503;28;20096;-74
2021/10/24 02:01:05;;;;;;;0.60;0.60;;;6.30;99.90;;;;;;5072306;28;20052;-73
2021/10/24 02:03:31;;;;;;;0.30;0.30;;;6.20;99.90;;;;;;5054394;28;20037;-73
2021/10/24 02:05:57;;;;;;;0.30;0.30;;;6.30;99.90;;;;;;5071536;28;20099;-74
2021/10/24 02:08:22;;;;;;;0.30;0.30;;;6.40;99.90;;;;;;5072154;28;20496;-73
2021/10/24 02:10:48;;;;;;;0.30;0.30;;;6.40;99.90;;;;;;5072198;28;20280;-73
2021/10/24 02:13:15;;;;;;;0.30;0.30;;;6.40;99.90;;;;;;5072226;28;20064;-74
2021/10/24 02:15:41;;;;;;;0.57;0.57;;;6.20;99.90;;;;;;5071978;28;20493;-73
2021/10/24 02:18:09;;;;;;;0.47;0.47;;;6.30;99.90;;;;;;5054124;28;20487;-73
2021/10/24 02:20:35;;;;;;;9.48;8.68;;;6.00;99.90;;;;;;5072355;28;20025;-74
2021/10/24 02:23:03;;;;;;;0.20;0.20;;;5.90;99.90;;;;;;5054128;28;20029;-74
2021/10/24 02:25:29;;;;;;;0.40;0.40;;;6.00;99.90;;;;;;5037323;28;20040;-74
2021/10/24 02:27:55;;;;;;;0.30;0.30;;;5.90;99.90;;;;;;5053781;28;20029;-74
2021/10/24 02:30:21;;;;;;;0.30;0.30;;;5.90;99.90;;;;;;5071888;28;20528;-74
2021/10/24 02:32:47;;;;;;;0.30;0.30;;;6.00;99.90;;;;;;5071874;28;20075;-73
2021/10/24 02:35:13;;;;;;;0.30;0.30;;;6.00;99.90;;;;;;5072042;28;20488;-74
2021/10/24 02:37:41;;;;;;;0.40;0.40;;;5.90;99.90;;;;;;5067866;22;20411;-75
2021/10/24 02:40:08;;;;;;;0.30;0.30;;;6.00;99.90;;;;;;5071891;28;20027;-75
2021/10/24 02:42:34;;;;;;;0.35;0.35;;;5.70;99.90;;;;;;5053989;28;20024;-75
2021/10/24 02:45:00;;;;;;;0.30;0.30;;;5.60;99.90;;;;;;5071731;28;20032;-75
2021/10/24 02:47:26;;;;;;;0.30;0.30;;;5.20;99.90;;;;;;5071861;28;20082;-75
2021/10/24 02:49:52;;;;;;;0.45;0.45;;;5.40;99.90;;;;;;5071779;28;20033;-75
2021/10/24 02:52:18;;;;;;;0.30;0.30;;;5.60;99.90;;;;;;5071744;28;20028;-75
2021/10/24 02:54:44;;;;;;;0.30;0.30;;;5.60;99.90;;;;;;5071567;28;20212;-75
2021/10/24 02:57:10;;;;;;;0.30;0.30;;;5.60;99.90;;;;;;5071721;28;20108;-75
2021/10/24 02:59:35;;;;;;;0.45;0.45;;;5.50;99.90;;;;;;5071718;28;20541;-75
2021/10/24 03:02:02;;;;;;;0.30;0.30;;;5.50;99.90;;;;;;5071684;28;20017;-75
2021/10/24 03:04:28;;;;;;;0.40;0.40;;;5.50;99.90;;;;;;5071772;28;20032;-75
2021/10/24 03:06:54;;;;;;;0.63;0.63;;;5.60;99.90;;;;;;5071587;28;20100;-75
2021/10/24 03:09:21;;;;;;;0.30;0.30;;;5.60;99.90;;;;;;5071649;28;20103;-75
2021/10/24 03:11:47;;;;;;;0.50;0.50;;;5.70;99.90;;;;;;5053484;28;20059;-75
2021/10/24 03:14:13;;;;;;;1.52;1.52;;;5.60;99.90;;;;;;5053475;28;20048;-75
2021/10/24 03:16:40;;;;;;;0.20;0.20;;;5.60;99.90;;;;;;5073394;28;20067;-75
2021/10/24 03:19:06;;;;;;;0.40;0.40;;;5.60;99.90;;;;;;5057533;28;20021;-75
2021/10/24 03:21:31;;;;;;;0.30;0.30;;;5.50;99.90;;;;;;5075578;28;20029;-75
2021/10/24 03:23:59;;;;;;;0.25;0.25;;;5.40;99.90;;;;;;5057529;28;20523;-75
2021/10/24 03:26:25;;;;;;;0.30;0.30;;;5.50;99.90;;;;;;5075164;28;20028;-75
2021/10/24 03:28:51;;;;;;;0.30;0.30;;;5.60;99.90;;;;;;5057496;28;20029;-75
2021/10/24 03:31:17;;;;;;;0.30;0.30;;;5.70;99.90;;;;;;5057280;28;20476;-74
2021/10/24 03:33:43;;;;;;;0.40;0.40;;;5.70;99.90;;;;;;5057215;28;20024;-75
2021/10/24 03:36:08;;;;;;;0.30;0.30;;;5.70;99.90;;;;;;5056938;28;20029;-75
2021/10/24 03:38:34;;;;;;;0.40;0.40;;;5.60;99.90;;;;;;5075075;28;20032;-75
2021/10/24 03:41:00;;;;;;;1.83;1.23;;;5.50;99.90;;;;;;5057193;28;20039;-75
2021/10/24 03:43:28;;;;;;;0.40;0.40;;;5.50;99.90;;;;;;5075202;28;20428;-75
2021/10/24 03:45:54;;;;;;;0.22;0.22;;;5.60;99.90;;;;;;5057040;28;20028;-75
2021/10/24 03:48:20;;;;;;;0.30;0.30;;;5.60;99.90;;;;;;5057139;28;20035;-75
2021/10/24 03:50:46;;;;;;;0.30;0.30;;;5.40;99.90;;;;;;5056953;28;20077;-75
2021/10/24 03:53:11;;;;;;;0.30;0.30;;;5.30;99.90;;;;;;5075627;28;20016;-75
2021/10/24 03:55:37;;;;;;;0.30;0.30;;;5.50;99.90;;;;;;5094828;28;20024;-75
2021/10/24 03:58:03;;;;;;;0.30;0.30;;;5.50;99.90;;;;;;5089579;28;20090;-75
2021/10/24 04:00:29;;;;;;;3.25;1.20;;;5.50;99.90;;;;;;5056737;28;20471;-75
2021/10/24 04:02:57;;;;;;;0.30;0.30;;;5.70;99.90;;;;;;5056919;28;20032;-75
2021/10/24 04:05:24;;;;;;;0.30;0.30;;;5.80;99.90;;;;;;5056699;28;20024;-75
2021/10/24 04:07:51;;;;;;;0.30;0.30;;;5.60;99.90;;;;;;5090477;28;20466;-75
2021/10/24 04:10:19;;;;;;;0.30;0.30;;;5.60;99.90;;;;;;5076607;28;20024;-75
2021/10/24 04:12:45;;;;;;;0.30;0.30;;;5.60;99.90;;;;;;5090474;28;20027;-75
2021/10/24 04:15:11;;;;;;;0.85;0.85;;;5.60;99.90;;;;;;5074348;28;20021;-75
2021/10/24 04:17:37;;;;;;;0.63;0.63;;;5.60;99.90;;;;;;5074509;28;20032;-75
2021/10/24 04:20:08;;;;;;;0.50;0.50;;;5.60;99.90;;;;;;5074627;28;20491;-79
2021/10/24 04:22:35;;;;;;;0.50;0.50;;;5.50;99.90;;;;;;5056707;28;20067;-74
2021/10/24 04:25:01;;;;;;;0.30;0.30;;;5.60;99.90;;;;;;5074772;28;20024;-75
2021/10/24 04:27:27;;;;;;;0.30;0.30;;;5.70;99.90;;;;;;5073769;28;20111;-75
2021/10/24 04:29:53;;;;;;;0.30;0.30;;;5.70;99.90;;;;;;5056239;28;20377;-75
2021/10/24 04:32:19;;;;;;;0.30;0.30;;;5.60;99.90;;;;;;5074697;28;20039;-75
2021/10/24 04:34:44;;;;;;;0.45;0.45;;;5.70;99.90;;;;;;5055959;28;20127;-75
2021/10/24 04:37:10;;;;;;;0.40;0.40;;;5.60;99.90;;;;;;5073963;28;20060;-74
2021/10/24 04:39:36;;;;;;;0.30;0.30;;;5.70;99.90;;;;;;5039493;28;20025;-75
2021/10/24 04:42:02;;;;;;;0.50;0.50;;;5.60;99.90;;;;;;5056055;28;20483;-75
2021/10/24 04:44:27;;;;;;;0.40;0.40;;;5.50;99.90;;;;;;5056008;28;20039;-75
2021/10/24 04:46:53;;;;;;;0.93;0.93;;;5.60;99.90;;;;;;5081936;28;20103;-75
2021/10/24 04:49:19;;;;;;;0.85;0.85;;;5.60;99.90;;;;;;5058714;28;20077;-75
2021/10/24 04:51:45;;;;;;;0.30;0.30;;;5.70;99.90;;;;;;5073661;28;20059;-74
2021/10/24 04:54:12;;;;;;;0.30;0.30;;;5.70;99.90;;;;;;5072729;28;20056;-75
2021/10/24 04:56:37;;;;;;;0.40;0.40;;;5.70;99.90;;;;;;5073494;28;20020;-75
2021/10/24 04:59:03;;;;;;;0.85;0.85;;;5.70;99.90;;;;;;5055538;28;20499;-75
2021/10/24 05:01:29;;;;;;;0.40;0.40;;;5.60;99.90;;;;;;5073735;28;20089;-75
2021/10/24 05:03:55;;;;;;;0.32;0.32;;;5.50;99.90;;;;;;5073661;28;20032;-75
2021/10/24 05:06:20;;;;;;;0.30;0.30;;;5.40;99.90;;;;;;5073326;28;20025;-75
2021/10/24 05:08:46;;;;;;;0.30;0.30;;;5.20;99.90;;;;;;5073497;28;20107;-75
2021/10/24 05:11:12;;;;;;;1.27;1.23;;;5.10;99.90;;;;;;5055671;28;20480;-75
2021/10/24 05:13:39;;;;;;;0.40;0.40;;;5.20;99.90;;;;;;5073530;28;20035;-76
2021/10/24 05:16:05;;;;;;;0.30;0.30;;;5.20;99.90;;;;;;5038646;28;20487;-75
2021/10/24 05:18:31;;;;;;;0.70;0.65;;;4.90;99.90;;;;;;5055239;28;20031;-75
2021/10/24 05:20:57;;;;;;;0.30;0.30;;;4.80;99.90;;;;;;5055261;28;20074;-75
2021/10/24 05:23:24;;;;;;;0.30;0.30;;;4.70;99.90;;;;;;5055380;28;20024;-75
2021/10/24 05:25:50;;;;;;;0.30;0.30;;;4.80;99.90;;;;;;5073003;28;20044;-75
2021/10/24 05:28:15;;;;;;;0.30;0.30;;;4.70;99.90;;;;;;5072909;28;20063;-75
2021/10/24 05:30:41;;;;;;;1.30;1.20;;;4.70;99.90;;;;;;5073078;28;20028;-72
2021/10/24 05:33:07;;;;;;;5.32;4.15;;;4.70;99.90;;;;;;5072871;28;20060;-72
2021/10/24 05:35:32;;;;;;;0.73;0.73;;;4.90;99.90;;;;;;5072684;28;20103;-72
2021/10/24 05:37:58;;;;;;;0.30;0.30;;;5.00;99.90;;;;;;5054970;28;20025;-72
2021/10/24 05:40:25;;;;;;;0.70;0.70;;;5.20;99.90;;;;;;5071559;28;20055;-72
2021/10/24 05:42:50;;;;;;;1.00;1.00;;;5.20;99.90;;;;;;5072709;28;20035;-72
2021/10/24 05:45:16;;;;;;;0.25;0.25;;;5.40;99.90;;;;;;5054411;28;20461;-71
2021/10/24 05:47:42;;;;;;;0.57;0.57;;;5.30;99.90;;;;;;5072537;28;20020;-70
2021/10/24 05:50:08;;;;;;;0.30;0.30;;;5.20;99.90;;;;;;5054550;28;20027;-70
2021/10/24 05:52:34;;;;;;;0.30;0.30;;;5.10;99.90;;;;;;5072589;28;20039;-70
2021/10/24 05:55:00;;;;;;;0.30;0.30;;;5.10;99.90;;;;;;5072239;28;20033;-70
2021/10/24 05:57:25;;;;;;;0.30;0.30;;;5.20;99.90;;;;;;5072459;28;20108;-70
2021/10/24 05:59:51;;;;;;;0.30;0.30;;;5.20;99.90;;;;;;5054502;28;20032;-72
2021/10/24 06:02:17;;;;;;;0.30;0.30;;;5.40;99.90;;;;;;5072224;28;20035;-73
2021/10/24 06:04:42;;;;;;;0.30;0.30;;;5.40;99.90;;;;;;5072135;28;20052;-72
2021/10/24 06:07:09;;;;;;;0.45;0.45;;;5.30;99.90;;;;;;5072175;28;20046;-72
2021/10/24 06:09:56;;;;;;;0.35;0.35;;;5.40;99.90;;;;;;5072140;28;20035;-72
2021/10/24 06:14:59;;;;;;;1.55;1.00;;;5.10;99.90;;;;;;5054001;28;20028;-72
2021/10/24 06:17:25;;;;;;;5.47;1.85;;;4.90;99.90;;;;;;5054114;28;20476;-72
2021/10/24 06:19:51;;;;;;;0.30;0.30;;;4.90;99.90;;;;;;5054069;28;20016;-72
2021/10/24 06:22:16;;;;;;;0.30;0.30;;;4.80;99.90;;;;;;5054367;28;20027;-72
2021/10/24 06:24:42;;;;;;;0.43;0.43;;;4.90;99.90;;;;;;5072091;28;20024;-73
2021/10/24 06:27:08;;;;;;;0.22;0.22;;;5.10;99.90;;;;;;5072024;28;20103;-72
2021/10/24 06:29:34;;;;;;;4.72;1.85;;;5.30;99.90;;;;;;5071816;28;20123;-72
2021/10/24 06:32:00;;;;;;;0.30;0.30;;;5.20;99.90;;;;;;5071819;28;20035;-75
2021/10/24 06:34:26;;;;;;;0.30;0.30;;;5.20;99.90;;;;;;5053818;28;20115;-75
2021/10/24 06:36:52;;;;;;;0.40;0.40;;;5.10;99.90;;;;;;5054130;28;20062;-75
2021/10/24 06:39:17;;;;;;;0.30;0.30;;;5.20;99.90;;;;;;5053959;28;20025;-75
2021/10/24 06:41:43;;;;;;;1.25;0.65;;;5.40;99.90;;;;;;5071714;28;20100;-75
2021/10/24 06:44:09;;;;;;;1.05;0.95;;;5.40;99.90;;;;;;5071661;28;20021;-75
2021/10/24 06:46:35;;;;;;;0.55;0.55;;;5.40;99.90;;;;;;5037268;28;20036;-75
2021/10/24 06:49:01;;;;;;;0.30;0.30;;;5.20;99.90;;;;;;5053833;28;20024;-75
2021/10/24 06:51:26;;;;;;;1.20;0.50;;;5.30;99.90;;;;;;5053343;28;20020;-75
2021/10/24 06:53:52;;;;;;;0.32;0.32;;;5.40;99.90;;;;;;5053588;28;20037;-75
2021/10/24 06:56:18;;;;;;;0.30;0.30;;;5.40;99.90;;;;;;5071542;28;20025;-75
2021/10/24 06:58:43;;;;;;;0.30;0.30;;;5.30;99.90;;;;;;5053299;28;20123;-75
2021/10/24 07:01:09;;;;;;;0.30;0.30;;;5.30;99.90;;;;;;5053558;28;20100;-75
2021/10/24 07:03:35;;;;;;;0.30;0.30;;;5.40;99.90;;;;;;5071665;28;20021;-75
2021/10/24 07:06:01;;;;;;;0.57;0.57;;;5.40;99.90;;;;;;5071550;28;20538;-75
2021/10/24 07:08:26;;;;;;;0.63;0.63;;;5.40;99.90;;;;;;5071311;28;20046;-74
2021/10/24 07:10:52;;;;;;;0.88;0.88;;;5.30;99.90;;;;;;5071197;28;20025;-75
2021/10/24 07:13:18;;;;;;;0.30;0.30;;;5.20;99.90;;;;;;5053573;28;20124;-75
2021/10/24 07:15:43;;;;;;;0.30;0.30;;;5.30;99.90;;;;;;5071534;28;20027;-75
2021/10/24 07:18:10;;;;;;;0.82;0.82;;;5.30;99.90;;;;;;5071430;28;20020;-75
2021/10/24 07:20:36;;;;;;;0.80;0.80;;;5.30;99.90;;;;;;5053591;28;20024;-75
2021/10/24 07:23:02;;;;;;;1.20;1.20;;;5.30;99.90;;;;;;5053536;28;20112;-75
2021/10/24 07:25:28;;;;;;;0.50;0.50;;;5.10;99.90;;;;;;5071263;28;20029;-75
2021/10/24 07:27:53;;;;;;;1.90;0.70;;;5.30;99.90;;;;;;5071031;28;20039;-75
2021/10/24 07:30:21;;;;;;;2.90;2.58;;;5.30;99.90;;;;;;5071091;28;20103;-75
2021/10/24 07:32:47;;;;;;;0.30;0.30;;;5.30;99.90;;;;;;5071131;28;20017;-71
2021/10/24 07:35:13;;;;;;;0.30;0.30;;;5.20;99.90;;;;;;5070802;28;20455;-71
2021/10/24 07:37:39;;;;;;;0.30;0.30;;;5.10;99.90;;;;;;5070821;28;20081;-71
2021/10/24 07:40:07;;;;;;;0.30;0.30;;;5.20;99.90;;;;;;5053384;28;20021;-71
2021/10/24 07:42:32;;;;;;;0.22;0.22;;;5.00;99.90;;;;;;5070943;28;20032;-74
2021/10/24 07:44:58;;;;;;;0.35;0.35;;;5.00;99.90;;;;;;5071379;28;20476;-74
2021/10/24 07:47:25;;;;;;;1.13;1.08;;;5.20;99.90;;;;;;5071132;28;20032;-74
2021/10/24 07:49:51;;;;;;;2.53;2.10;;;5.20;99.90;;;;;;5053328;28;20025;-74
2021/10/24 07:52:18;;;;;;;0.65;0.65;;;5.30;99.90;;;;;;5053177;28;20120;-74
2021/10/24 07:54:43;;;;;;;0.40;0.40;;;5.30;99.90;;;;;;5070836;28;20024;-74
2021/10/24 07:57:10;;;;;;;0.70;0.70;;;5.40;99.90;;;;;;5071422;28;20044;-74
2021/10/24 07:59:36;;;;;;;0.82;0.82;;;5.50;99.90;;;;;;5052958;28;20479;-74
2021/10/24 08:02:02;;;;;;;0.50;0.50;;;5.60;99.90;;;;;;5053008;28;20024;-74
2021/10/24 08:04:29;;;;;;;1.20;0.70;;;5.70;99.90;;;;;;5055709;28;20443;-74
2021/10/24 08:06:55;;;;;;;0.40;0.40;;;5.90;99.90;;;;;;5056950;28;20051;-75
2021/10/24 08:09:21;;;;;;;1.10;1.00;;;5.80;99.90;;;;;;5039837;28;20469;-74
2021/10/24 08:11:48;;;;;;;0.90;0.47;;;5.70;99.90;;;;;;5056462;28;20056;-74
2021/10/24 08:14:13;;;;;;;0.82;0.52;;;5.70;99.90;;;;;;5074029;28;20123;-74
2021/10/24 08:16:40;;;;;;;0.50;0.50;;;5.80;99.90;;;;;;5073979;28;20123;-74
2021/10/24 08:19:06;;;;;;;2.30;1.55;;;5.90;99.90;;;;;;5074373;28;20021;-74
2021/10/24 08:21:32;;;;;;;3.10;0.95;;;6.00;99.90;;;;;;5040057;28;20357;-74
2021/10/24 08:23:59;;;;;;;0.40;0.40;;;6.00;99.90;;;;;;5056674;28;20040;-74
2021/10/24 08:26:25;;;;;;;0.30;0.30;;;6.00;99.90;;;;;;5055934;28;20104;-75
2021/10/24 08:28:51;;;;;;;0.20;0.20;;;6.20;99.90;;;;;;5055996;28;20032;-74
2021/10/24 08:31:24;;;;;;;0.30;0.30;;;6.20;99.90;;;;;;5074384;28;20035;-75
2021/10/24 08:33:52;;;;;;;0.22;0.22;;;6.30;99.90;;;;;;5073879;28;20028;-74
2021/10/24 08:36:18;;;;;;;1.70;0.88;;;6.50;99.90;;;;;;5038998;28;20107;-74
2021/10/24 08:38:43;;;;;;;1.88;1.77;;;6.70;99.90;;;;;;5068118;22;20040;-75
2021/10/24 08:41:10;;;;;;;2.58;1.70;;;6.80;99.90;;;;;;5055814;28;20520;-75
2021/10/24 08:43:38;;;;;;;0.30;0.30;;;6.90;99.90;;;;;;5073836;28;20442;-75
2021/10/24 08:46:05;;;;;;;0.25;0.25;;;6.80;99.90;;;;;;5055620;28;20052;-75
2021/10/24 08:48:34;;;;;;;0.50;0.50;;;7.00;99.90;;;;;;5056003;28;20086;-75
2021/10/24 08:51:01;;;;;;;0.20;0.20;;;7.10;99.90;;;;;;5055687;28;20101;-75
2021/10/24 08:53:28;;;;;;;0.45;0.45;;;7.20;99.90;;;;;;5055819;28;20038;-74
2021/10/24 08:55:56;;;;;;;1.35;1.00;;;7.30;99.90;;;;;;5073500;28;20025;-75
2021/10/24 08:58:22;;;;;;;0.40;0.40;;;7.00;99.90;;;;;;5073647;28;20400;-75
2021/10/24 09:00:48;;;;;;;0.65;0.65;;;7.10;99.90;;;;;;5055764;28;20544;-74
2021/10/24 09:03:14;;;;;;;0.20;0.20;;;7.10;99.90;;;;;;5055736;28;20447;-75
2021/10/24 09:05:48;;;;;;;0.65;0.52;;;7.30;99.90;;;;;;5055280;28;20044;-75
2021/10/24 09:08:24;;;;;;;21.63;19.40;;;7.40;99.90;;;;;;5055308;28;20427;-75
2021/10/24 09:10:55;;;;;;;2.47;1.20;;;7.70;99.90;;;;;;5055569;28;20375;-75
2021/10/24 09:13:27;;;;;;;0.63;0.63;;;7.90;99.90;;;;;;5055527;28;20020;-75
2021/10/24 09:16:02;;;;;;;0.20;0.20;;;7.80;99.90;;;;;;5055255;28;20047;-75
2021/10/24 09:18:28;;;;;;;0.20;0.20;;;8.00;99.90;;;;;;5073340;28;20027;-75
2021/10/24 09:20:54;;;;;;;8.27;2.75;;;8.60;99.90;;;;;;5073190;28;20103;-75
2021/10/24 09:23:20;;;;;;;0.20;0.20;;;9.20;99.90;;;;;;5073223;28;20013;-75
2021/10/24 09:25:57;;;;;;;0.20;0.20;;;9.90;99.90;;;;;;5055404;28;20050;-75
2021/10/24 09:28:25;;;;;;;0.20;0.20;;;10.40;99.90;;;;;;5072936;28;20025;-75
2021/10/24 09:31:04;;;;;;;0.30;0.30;;;10.80;98.90;;;;;;5073526;28;20024;-75
2021/10/24 09:33:45;;;;;;;0.20;0.20;;;11.10;94.90;;;;;;5055699;28;20471;-75
2021/10/24 09:36:13;;;;;;;0.17;0.17;;;11.20;94.60;;;;;;5072724;28;20414;-75
2021/10/24 09:38:43;;;;;;;0.52;0.52;;;11.90;93.20;;;;;;5054860;28;20028;-75
2021/10/24 09:41:09;;;;;;;0.10;0.10;;;12.10;91.10;;;;;;5055185;28;20051;-75
2021/10/24 09:43:36;;;;;;;3.67;2.35;;;12.50;90.50;;;;;;5072616;28;20057;-75
2021/10/24 09:46:02;;;;;;;0.15;0.15;;;13.30;86.30;;;;;;5054400;28;20123;-75
2021/10/24 09:48:30;;;;;;;0.60;0.60;;;13.80;81.60;;;;;;5072762;28;20020;-75
2021/10/24 09:50:59;;;;;;;0.13;0.13;;;14.00;77.20;;;;;;5072767;28;20544;-75
2021/10/24 09:53:27;;;;;;;0.55;0.55;;;13.70;76.10;;;;;;5054565;28;20037;-75
2021/10/24 09:55:53;;;;;;;0.57;0.57;;;14.20;76.40;;;;;;5054674;28;20077;-75
2021/10/24 09:58:20;;;;;;;1.75;1.65;;;14.90;71.90;;;;;;5072197;28;20092;-75
2021/10/24 10:00:46;;;;;;;0.52;0.47;;;15.20;67.70;;;;;;5072380;28;20016;-75
2021/10/24 10:03:12;;;;;;;0.30;0.30;;;15.60;67.00;;;;;;5072543;28;20441;-75
2021/10/24 10:05:39;;;;;;;0.17;0.17;;;16.20;64.90;;;;;;5054423;28;20098;-75
2021/10/24 10:08:09;;;;;;;0.73;0.73;;;16.20;63.40;;;;;;5054422;28;20024;-75
2021/10/24 10:10:44;;;;;;;0.70;0.70;;;16.60;61.70;;;;;;5054383;28;20462;-75
2021/10/24 10:13:12;;;;;;;0.10;0.10;;;16.50;63.00;;;;;;5072175;28;20043;-75
2021/10/24 10:15:42;;;;;;;0.35;0.35;;;16.80;61.40;;;;;;5072214;28;20112;-75
2021/10/24 10:18:08;;;;;;;0.63;0.43;;;17.20;59.30;;;;;;5072167;28;20016;-75
2021/10/24 10:20:52;;;;;;;0.47;0.47;;;17.20;59.10;;;;;;5072073;28;20021;-75
2021/10/24 10:23:22;;;;;;;0.22;0.22;;;17.50;58.50;;;;;;5055821;28;20108;-75
2021/10/24 10:25:50;;;;;;;0.57;0.52;;;17.40;57.30;;;;;;5053694;28;20052;-75
2021/10/24 10:28:45;;;;;;;0.75;0.65;;;17.70;58.10;;;;;;5072284;28;20016;-75
2021/10/24 10:31:16;;;;;;;1.85;1.23;;;17.90;55.90;;;;;;5054397;28;20136;-75
2021/10/24 10:34:00;;;;;;;0.10;0.10;;;17.20;57.80;;;;;;5054071;28;20035;-75
2021/10/24 10:36:44;;;;;;;0.28;0.28;;;17.30;58.70;;;;;;5037491;28;20020;-75
2021/10/24 10:39:32;;;;;;;0.85;0.43;;;18.10;55.90;;;;;;5071872;28;20107;-75
2021/10/24 10:42:07;;;;;;;0.30;0.30;;;18.40;55.00;;;;;;5071931;28;20029;-76
2021/10/24 10:44:34;;;;;;;0.32;0.32;;;18.80;54.20;;;;;;5071818;28;20029;-75
2021/10/24 10:47:20;;;;;;;0.10;0.10;;;19.10;53.20;;;;;;5072168;28;20118;-75
2021/10/24 10:49:46;;;;;;;0.60;0.60;;;19.40;52.70;;;;;;5053854;28;20027;-76
2021/10/24 10:52:40;;;;;;;0.20;0.20;;;19.10;52.30;;;;;;5053993;28;20111;-75
2021/10/24 10:55:06;;;;;;;0.15;0.15;;;19.20;52.60;;;;;;5072003;28;20036;-75
2021/10/24 10:57:32;;;;;;;0.15;0.15;;;19.90;51.40;;;;;;5071897;28;20039;-75
2021/10/24 10:59:58;;;;;;;0.15;0.15;;;20.10;49.60;;;;;;5071761;28;20464;-76
2021/10/24 11:02:28;;;;;;;0.45;0.45;;;20.50;50.10;;;;;;5071735;28;20350;-75
2021/10/24 11:05:00;;;;;;;0.10;0.10;;;20.80;49.00;;;;;;5071649;28;20108;-76
2021/10/24 11:07:39;;;;;;;;;;;21.00;48.60;;;;;;5072079;28;20028;-75
2021/10/24 11:10:07;;;;;;;0.10;0.10;;;21.10;48.50;;;;;;5071564;28;19915;-75
2021/10/24 11:12:39;;;;;;;0.10;0.10;;;21.60;47.20;;;;;;5071682;28;20025;-76
2021/10/24 11:15:06;;;;;;;0.47;0.47;;;21.60;46.60;;;;;;5071551;28;20032;-75
2021/10/24 11:17:33;;;;;;;0.45;0.43;;;21.10;47.00;;;;;;5071536;28;20021;-76
2021/10/24 11:20:21;;;;;;;0.10;0.10;;;20.90;47.30;;;;;;5071438;28;20012;-75
2021/10/24 11:22:59;;;;;;;0.30;0.30;;;21.00;48.60;;;;;;5071478;28;20024;-75
2021/10/24 11:25:31;;;;;;;0.10;0.10;;;21.80;46.40;;;;;;5071535;28;20075;-75
2021/10/24 11:28:02;;;;;;;1.15;0.57;;;22.20;45.90;;;;;;5053508;28;20033;-75
2021/10/24 11:30:28;;;;;;;0.50;0.45;;;22.10;44.90;;;;;;5053470;28;20537;-75
2021/10/24 11:32:54;;;;;;;0.60;0.60;;;21.50;47.20;;;;;;5071746;28;20032;-75
2021/10/24 11:35:22;;;;;;;0.55;0.52;;;21.90;46.30;;;;;;5071363;28;20064;-76
2021/10/24 11:37:54;;;;;;;0.10;0.10;;;22.40;45.20;;;;;;5071722;28;20025;-76
2021/10/24 11:40:24;;;;;;;0.10;0.10;;;22.60;45.00;;;;;;5075266;28;20048;-75
2021/10/24 11:43:13;;;;;;;0.10;0.10;;;22.60;44.50;;;;;;5040669;28;20115;-76
2021/10/24 11:45:44;;;;;;;0.10;0.10;;;22.90;44.70;;;;;;5057040;28;20066;-75
2021/10/24 11:48:14;;;;;;;4.15;0.98;;;23.20;44.00;;;;;;5075126;28;20534;-76
2021/10/24 11:50:44;;;;;;;0.15;0.15;;;23.10;44.20;;;;;;5075094;28;20020;-75
2021/10/24 11:53:27;;;;;;;0.80;0.80;;;23.50;44.00;;;;;;5074894;28;20056;-76
2021/10/24 11:55:56;;;;;;;1.30;0.90;;;23.60;43.30;;;;;;5056701;28;20031;-75
2021/10/24 12:01:14;;;;;;;0.40;0.30;;;23.40;43.20;;;;;;5074955;28;20074;-76
2021/10/24 12:03:41;;;;;;;0.15;0.15;;;23.40;43.30;;;;;;5040241;28;20070;-75
2021/10/24 12:06:12;;;;;;;0.57;0.57;;;23.30;43.60;;;;;;5056748;28;20029;-75
2021/10/24 12:08:42;;;;;;;0.03;0.03;;;23.30;43.20;;;;;;5056834;28;20139;-75
2021/10/24 12:11:12;;;;;;;0.43;0.40;;;23.00;43.80;;;;;;5074797;28;20052;-75
2021/10/24 12:13:40;;;;;;;0.77;0.57;;;23.30;42.80;;;;;;5074826;28;20070;-75
2021/10/24 12:16:32;;;;;;;0.10;0.10;;;22.50;44.80;;;;;;5074618;28;20012;-75
2021/10/24 12:19:17;;;;;;;0.28;0.28;;;23.00;44.40;;;;;;5056578;28;20025;-75
2021/10/24 12:21:58;;;;;;;23.42;7.78;;;23.80;42.70;;;;;;5074690;28;20024;-75
2021/10/24 12:24:39;;;;;;;0.00;0.00;;;23.70;42.90;;;;;;5074479;28;20036;-75
2021/10/24 12:27:08;;;;;;;3.22;0.45;;;23.70;42.60;;;;;;5056572;28;20036;-75
2021/10/24 12:29:35;;;;;;;1.00;0.57;;;24.10;41.90;;;;;;5056634;28;20541;-75
2021/10/24 12:32:05;;;;;;;1.15;1.08;;;23.30;42.60;;;;;;5056506;28;20422;-76
2021/10/24 12:34:32;;;;;;;0.10;0.10;;;22.70;44.70;;;;;;5074156;28;20097;-75
2021/10/24 12:36:57;;;;;;;0.63;0.63;;;23.00;44.70;;;;;;5056190;28;20430;-77
2021/10/24 12:39:26;;;;;;;0.45;0.45;;;23.80;43.10;;;;;;5074500;28;20028;-75
2021/10/24 12:41:53;;;;;;;0.13;0.13;;;23.60;42.40;;;;;;5056214;28;20043;-73
2021/10/24 12:44:33;;;;;;;0.20;0.20;;;23.30;42.70;;;;;;5055993;28;20388;-73
2021/10/24 12:47:15;;;;;;;0.10;0.10;;;22.70;44.20;;;;;;5074092;28;20051;-74
2021/10/24 12:49:51;;;;;;;;;;;22.80;44.00;;;;;;5073866;28;20025;-74
2021/10/24 12:52:17;;;;;;;0.10;0.10;;;22.90;44.10;;;;;;5073917;28;19908;-74
2021/10/24 12:54:56;;;;;;;0.10;0.10;;;23.00;44.30;;;;;;5073533;28;20043;-74
2021/10/24 12:57:22;;;;;;;0.10;0.10;;;23.20;43.30;;;;;;5055919;28;20050;-74
2021/10/24 12:59:48;;;;;;;0.70;0.70;;;23.00;43.60;;;;;;5055710;28;20024;-74
2021/10/24 13:02:14;;;;;;;0.10;0.10;;;22.00;44.60;;;;;;5073784;28;20048;-74
2021/10/24 13:04:39;;;;;;;0.20;0.20;;;20.80;47.50;;;;;;5073455;28;20047;-74